Time;durP1;ratioP1;P1;durP2;ratioP2;P2;SDS_P1;SDS_P2;PMS_P1;PMS_P2;Temp;Humidity;BMP_temperature;BMP_pressure;BME280_temperature;BME280_humidity;BME280_pressure;Samples;Min_cycle;Max_cycle;Signal;HPM_P1;HPM_P2
2024/02/28 00:01:52;;;;;;;13.68;9.93;;;5.10;99.90;;;;;;5110660;28;20034;-68
2024/02/28 00:04:18;;;;;;;19.30;12.37;;;5.00;99.90;;;;;;5109028;28;20119;-68
2024/02/28 00:06:46;;;;;;;15.10;9.95;;;5.00;99.90;;;;;;5110421;28;20443;-68
2024/02/28 00:09:13;;;;;;;17.58;12.07;;;5.00;99.90;;;;;;5109879;28;20016;-68
2024/02/28 00:11:45;;;;;;;19.08;12.85;;;5.00;99.90;;;;;;5110319;28;20088;-68
2024/02/28 00:14:14;;;;;;;16.65;11.77;;;4.90;99.90;;;;;;5110556;28;20016;-68
2024/02/28 00:16:44;;;;;;;16.50;11.27;;;4.90;99.90;;;;;;5110376;28;20419;-68
2024/02/28 00:19:11;;;;;;;17.73;11.68;;;4.90;99.90;;;;;;5110704;28;20095;-68
2024/02/28 00:21:37;;;;;;;15.70;11.75;;;4.90;99.90;;;;;;5109407;28;20480;-69
2024/02/28 00:24:03;;;;;;;17.40;11.07;;;4.90;99.90;;;;;;5110485;28;20024;-68
2024/02/28 00:26:28;;;;;;;18.88;13.27;;;4.90;99.90;;;;;;5109911;28;20119;-68
2024/02/28 00:28:54;;;;;;;20.90;13.05;;;4.90;99.90;;;;;;5110318;28;20031;-68
2024/02/28 00:31:21;;;;;;;14.75;10.45;;;4.80;99.90;;;;;;5110274;28;20469;-68
2024/02/28 00:33:47;;;;;;;15.43;11.07;;;4.90;99.90;;;;;;5110353;28;20421;-68
2024/02/28 00:36:13;;;;;;;16.90;10.85;;;4.80;99.90;;;;;;5109917;28;20031;-68
2024/02/28 00:38:38;;;;;;;15.48;10.75;;;4.90;99.90;;;;;;5110142;28;20027;-68
2024/02/28 00:41:04;;;;;;;16.83;11.35;;;4.80;99.90;;;;;;5109830;28;20027;-68
2024/02/28 00:43:29;;;;;;;18.52;11.07;;;4.80;99.90;;;;;;5110109;28;20031;-68
2024/02/28 00:45:55;;;;;;;14.00;9.73;;;4.80;99.90;;;;;;5109452;27;20024;-68
2024/02/28 00:48:22;;;;;;;15.32;10.68;;;4.80;99.90;;;;;;5109717;28;20035;-69
2024/02/28 00:50:47;;;;;;;16.08;10.35;;;4.80;99.90;;;;;;5108670;28;20027;-68
2024/02/28 00:53:13;;;;;;;16.33;10.13;;;4.70;99.90;;;;;;5109481;28;20028;-68
2024/02/28 00:55:38;;;;;;;14.65;10.93;;;4.70;99.90;;;;;;5109475;27;20022;-68
2024/02/28 00:58:04;;;;;;;16.75;10.57;;;4.70;99.90;;;;;;5109575;28;20020;-67
2024/02/28 01:00:29;;;;;;;16.48;10.73;;;4.70;99.90;;;;;;5109502;28;20117;-67
2024/02/28 01:02:56;;;;;;;15.15;11.02;;;4.70;99.90;;;;;;5107818;28;20392;-67
2024/02/28 01:05:21;;;;;;;20.77;10.77;;;4.70;99.90;;;;;;5109085;28;20027;-67
2024/02/28 01:07:47;;;;;;;14.48;9.98;;;4.70;99.90;;;;;;5109629;28;20028;-67
2024/02/28 01:10:12;;;;;;;17.77;10.68;;;4.70;99.90;;;;;;5108447;28;20090;-66
2024/02/28 01:12:38;;;;;;;17.17;11.25;;;4.70;99.90;;;;;;5109394;28;20383;-66
2024/02/28 01:15:04;;;;;;;19.58;10.63;;;4.70;99.90;;;;;;5109407;28;20048;-67
2024/02/28 01:17:30;;;;;;;17.48;10.55;;;4.70;99.90;;;;;;5109006;28;20373;-67
2024/02/28 01:19:55;;;;;;;15.88;10.32;;;4.70;99.90;;;;;;5107789;28;20047;-66
2024/02/28 01:22:21;;;;;;;18.40;11.45;;;4.60;99.90;;;;;;5107683;28;20753;-66
2024/02/28 01:24:46;;;;;;;16.33;11.25;;;4.60;99.90;;;;;;5109687;28;20043;-66
2024/02/28 01:27:12;;;;;;;14.75;10.20;;;4.60;99.90;;;;;;5108600;28;20092;-67
2024/02/28 01:29:38;;;;;;;15.30;9.95;;;4.60;99.90;;;;;;5107818;28;20031;-67
2024/02/28 01:32:03;;;;;;;15.85;10.73;;;4.50;99.90;;;;;;5109127;28;20046;-66
2024/02/28 01:34:29;;;;;;;16.70;11.07;;;4.60;99.90;;;;;;5107728;28;20024;-67
2024/02/28 01:36:54;;;;;;;18.48;12.55;;;4.50;99.90;;;;;;5107701;28;20026;-67
2024/02/28 01:39:20;;;;;;;17.05;11.57;;;4.50;99.90;;;;;;5107384;28;20260;-66
2024/02/28 01:41:57;;;;;;;16.85;11.32;;;4.50;99.90;;;;;;5108910;28;20540;-66
2024/02/28 01:44:22;;;;;;;18.88;12.65;;;4.50;99.90;;;;;;5108713;28;20103;-66
2024/02/28 01:46:48;;;;;;;17.02;11.27;;;4.50;99.90;;;;;;5108780;28;20107;-66
2024/02/28 01:49:14;;;;;;;22.23;13.68;;;4.40;99.90;;;;;;5109029;28;20098;-66
2024/02/28 01:51:41;;;;;;;18.67;12.10;;;4.40;99.90;;;;;;5108773;28;20210;-66
2024/02/28 01:54:06;;;;;;;18.38;11.68;;;4.50;99.90;;;;;;5108653;27;20489;-66
2024/02/28 01:56:32;;;;;;;15.95;11.05;;;4.50;99.90;;;;;;5106643;28;20047;-65
2024/02/28 01:58:58;;;;;;;19.65;11.40;;;4.40;99.90;;;;;;5108600;28;20024;-66
2024/02/28 02:01:26;;;;;;;18.63;11.77;;;4.40;99.90;;;;;;5108331;28;20042;-66
2024/02/28 02:03:51;;;;;;;17.60;11.57;;;4.40;99.90;;;;;;5108728;28;20020;-66
2024/02/28 02:06:17;;;;;;;17.55;11.98;;;4.40;99.90;;;;;;5108013;28;20084;-66
2024/02/28 02:08:43;;;;;;;17.05;10.65;;;4.40;99.90;;;;;;5108377;28;20360;-65
2024/02/28 02:11:08;;;;;;;15.77;10.65;;;4.40;99.90;;;;;;5108376;28;20035;-66
2024/02/28 02:13:35;;;;;;;21.50;12.55;;;4.40;99.90;;;;;;5108287;28;20022;-65
2024/02/28 02:16:01;;;;;;;18.58;12.10;;;4.40;99.90;;;;;;5107959;28;20034;-65
2024/02/28 02:18:26;;;;;;;19.42;11.75;;;4.40;99.90;;;;;;5108093;28;20469;-65
2024/02/28 02:20:57;;;;;;;18.13;12.48;;;4.40;99.90;;;;;;5107700;28;20019;-67
2024/02/28 02:23:22;;;;;;;22.73;12.15;;;4.30;99.90;;;;;;5108179;28;20032;-67
2024/02/28 02:25:48;;;;;;;22.95;13.50;;;4.30;99.90;;;;;;5107823;28;20046;-66
2024/02/28 02:28:14;;;;;;;17.02;10.80;;;4.20;99.90;;;;;;5108043;28;20020;-67
2024/02/28 02:30:41;;;;;;;18.27;12.38;;;4.20;99.90;;;;;;5108356;28;20019;-66
2024/02/28 02:33:07;;;;;;;21.42;12.55;;;4.20;99.90;;;;;;5108254;28;20015;-66
2024/02/28 02:35:37;;;;;;;18.67;12.63;;;4.20;99.90;;;;;;5108082;28;20026;-65
2024/02/28 02:38:02;;;;;;;16.73;11.88;;;4.30;99.90;;;;;;5108060;28;20020;-66
2024/02/28 02:40:28;;;;;;;17.60;11.10;;;4.30;99.90;;;;;;5106680;28;20034;-66
2024/02/28 02:42:53;;;;;;;19.88;11.80;;;4.30;99.90;;;;;;5107923;28;20015;-65
2024/02/28 02:45:19;;;;;;;18.35;11.60;;;4.20;99.90;;;;;;5107667;28;20080;-66
2024/02/28 02:47:45;;;;;;;18.85;12.07;;;4.20;99.90;;;;;;5106586;28;20027;-66
2024/02/28 02:50:11;;;;;;;19.10;11.35;;;4.20;99.90;;;;;;5107118;28;20024;-66
2024/02/28 02:52:36;;;;;;;18.00;12.02;;;4.20;99.90;;;;;;5107474;28;20029;-65
2024/02/28 02:55:02;;;;;;;19.45;12.98;;;4.20;99.90;;;;;;5107866;28;20311;-65
2024/02/28 02:57:30;;;;;;;19.08;11.35;;;4.10;99.90;;;;;;5107351;28;20023;-66
2024/02/28 02:59:56;;;;;;;23.02;12.23;;;4.10;99.90;;;;;;5106651;28;20545;-67
2024/02/28 03:02:21;;;;;;;19.13;12.90;;;4.00;99.90;;;;;;5106184;28;20029;-66
2024/02/28 03:04:47;;;;;;;20.77;12.23;;;4.10;99.90;;;;;;5108092;28;20383;-68
2024/02/28 03:07:13;;;;;;;20.45;12.75;;;4.10;99.90;;;;;;5107175;28;20346;-67
2024/02/28 03:09:38;;;;;;;20.75;12.48;;;4.00;99.90;;;;;;5107898;28;20022;-68
2024/02/28 03:12:04;;;;;;;18.77;11.80;;;4.00;99.90;;;;;;5107575;28;20103;-68
2024/02/28 03:14:29;;;;;;;18.42;12.35;;;4.00;99.90;;;;;;5107685;28;20544;-67
2024/02/28 03:16:55;;;;;;;20.70;11.65;;;4.00;99.90;;;;;;5107232;28;20020;-68
2024/02/28 03:19:21;;;;;;;21.20;12.63;;;4.00;99.90;;;;;;5107929;28;20177;-67
2024/02/28 03:21:46;;;;;;;20.58;13.40;;;4.00;99.90;;;;;;5105977;28;20035;-67
2024/02/28 03:24:12;;;;;;;18.48;11.57;;;4.00;99.90;;;;;;5107469;28;20123;-67
2024/02/28 03:26:37;;;;;;;17.30;11.05;;;4.00;99.90;;;;;;5107257;28;20031;-68
2024/02/28 03:29:03;;;;;;;19.80;12.00;;;4.00;99.90;;;;;;5106185;28;20015;-67
2024/02/28 03:31:28;;;;;;;17.50;11.50;;;4.00;99.90;;;;;;5107270;28;20028;-67
2024/02/28 03:33:54;;;;;;;19.50;12.30;;;4.00;99.90;;;;;;5110248;28;20019;-67
2024/02/28 03:36:20;;;;;;;19.05;12.32;;;4.00;99.90;;;;;;5110058;28;20396;-67
2024/02/28 03:38:45;;;;;;;17.67;11.57;;;4.00;99.90;;;;;;5111105;28;20019;-67
2024/02/28 03:41:11;;;;;;;20.02;12.70;;;4.00;99.90;;;;;;5111020;28;20514;-67
2024/02/28 03:43:36;;;;;;;18.98;11.88;;;4.00;99.90;;;;;;5111246;28;20030;-67
2024/02/28 03:46:02;;;;;;;20.85;12.70;;;4.00;99.90;;;;;;5110857;28;20031;-68
2024/02/28 03:48:27;;;;;;;16.58;11.18;;;4.00;99.90;;;;;;5110465;28;20044;-68
2024/02/28 03:50:53;;;;;;;19.13;12.25;;;4.00;99.90;;;;;;5111154;28;20028;-67
2024/02/28 03:53:19;;;;;;;19.48;13.27;;;4.00;99.90;;;;;;5111010;28;20020;-67
2024/02/28 03:55:44;;;;;;;19.92;11.95;;;3.90;99.90;;;;;;5110405;28;20045;-67
2024/02/28 03:58:10;;;;;;;23.08;12.80;;;4.00;99.90;;;;;;5110689;28;20628;-67
2024/02/28 04:00:36;;;;;;;18.20;12.13;;;3.90;99.90;;;;;;5109993;28;20039;-67
2024/02/28 04:03:03;;;;;;;19.50;11.77;;;3.90;99.90;;;;;;5110478;27;20016;-67
2024/02/28 04:05:29;;;;;;;22.20;13.73;;;3.90;99.90;;;;;;5109900;28;20556;-67
2024/02/28 04:07:55;;;;;;;17.65;12.32;;;3.80;99.90;;;;;;5111123;28;20026;-67
2024/02/28 04:10:21;;;;;;;22.67;12.27;;;3.80;99.90;;;;;;5110598;28;20023;-67
2024/02/28 04:12:46;;;;;;;19.45;12.52;;;3.70;99.90;;;;;;5109082;28;20119;-67
2024/02/28 04:15:12;;;;;;;21.35;13.88;;;3.70;99.90;;;;;;5110437;28;20073;-67
2024/02/28 04:17:39;;;;;;;21.27;12.88;;;3.80;99.90;;;;;;5110150;28;20043;-67
2024/02/28 04:20:11;;;;;;;20.33;11.45;;;3.70;99.90;;;;;;5110538;28;20052;-67
2024/02/28 04:22:37;;;;;;;21.33;12.80;;;3.80;99.90;;;;;;5110186;28;20038;-68
2024/02/28 04:25:08;;;;;;;20.00;13.38;;;3.70;99.90;;;;;;5110281;28;20019;-67
2024/02/28 04:27:34;;;;;;;20.35;12.45;;;3.70;99.90;;;;;;5108431;28;20032;-67
2024/02/28 04:30:00;;;;;;;21.40;13.88;;;3.70;99.90;;;;;;5110347;28;20023;-67
2024/02/28 04:32:25;;;;;;;18.98;11.80;;;3.70;99.90;;;;;;5109982;28;20024;-68
2024/02/28 04:34:51;;;;;;;18.08;11.90;;;3.70;99.90;;;;;;5108790;28;20015;-67
2024/02/28 04:37:17;;;;;;;21.08;13.48;;;3.70;99.90;;;;;;5109853;28;20069;-67
2024/02/28 04:39:42;;;;;;;19.20;12.82;;;3.70;99.90;;;;;;5110042;27;20024;-67
2024/02/28 04:42:08;;;;;;;20.70;12.77;;;3.60;99.90;;;;;;5109664;28;20111;-67
2024/02/28 04:44:33;;;;;;;18.73;12.82;;;3.60;99.90;;;;;;5107238;28;20068;-67
2024/02/28 04:46:59;;;;;;;19.35;12.02;;;3.60;99.90;;;;;;5108102;28;20126;-67
2024/02/28 04:49:25;;;;;;;21.70;13.82;;;3.70;99.90;;;;;;5109801;28;20373;-67
2024/02/28 04:51:51;;;;;;;21.70;14.10;;;3.60;99.90;;;;;;5109706;28;20499;-67
2024/02/28 04:54:16;;;;;;;20.35;13.13;;;3.60;99.90;;;;;;5109810;28;20027;-67
2024/02/28 04:56:42;;;;;;;20.83;13.30;;;3.70;99.90;;;;;;5109184;28;20059;-67
2024/02/28 04:59:17;;;;;;;21.90;14.38;;;3.70;99.90;;;;;;5109746;28;20108;-67
2024/02/28 05:01:42;;;;;;;23.02;14.02;;;3.60;99.90;;;;;;5109706;28;20020;-68
2024/02/28 05:04:09;;;;;;;23.40;14.52;;;3.60;99.90;;;;;;5109470;28;20027;-68
2024/02/28 05:06:35;;;;;;;24.00;14.82;;;3.60;99.90;;;;;;5109453;28;20027;-68
2024/02/28 05:09:00;;;;;;;25.83;15.70;;;3.60;99.90;;;;;;5109499;28;20035;-67
2024/02/28 05:11:26;;;;;;;22.17;14.57;;;3.50;99.90;;;;;;5109169;28;20020;-68
2024/02/28 05:13:51;;;;;;;23.83;15.48;;;3.50;99.90;;;;;;5109327;28;20051;-67
2024/02/28 05:16:17;;;;;;;21.00;14.20;;;3.50;99.90;;;;;;5108944;28;20034;-67
2024/02/28 05:18:46;;;;;;;23.42;15.32;;;3.50;99.90;;;;;;5109227;28;20068;-68
2024/02/28 05:21:13;;;;;;;24.25;15.45;;;3.50;99.90;;;;;;5109151;28;20027;-67
2024/02/28 05:23:40;;;;;;;23.60;15.77;;;3.50;99.90;;;;;;5107581;28;20474;-67
2024/02/28 05:26:06;;;;;;;23.95;15.60;;;3.60;99.90;;;;;;5108945;28;20480;-67
2024/02/28 05:28:35;;;;;;;23.88;13.90;;;3.50;99.90;;;;;;5109329;28;20029;-67
2024/02/28 05:31:21;;;;;;;26.73;15.60;;;3.50;99.90;;;;;;5108781;28;20445;-67
2024/02/28 05:33:46;;;;;;;25.83;14.32;;;3.50;99.90;;;;;;5108844;28;20445;-67
2024/02/28 05:36:12;;;;;;;24.08;14.25;;;3.50;99.90;;;;;;5108532;28;20095;-67
2024/02/28 05:38:37;;;;;;;27.77;14.85;;;3.50;99.90;;;;;;5108605;28;20031;-67
2024/02/28 05:41:03;;;;;;;23.48;15.43;;;3.50;99.90;;;;;;5108854;28;20470;-68
2024/02/28 05:43:28;;;;;;;25.30;15.68;;;3.50;99.90;;;;;;5107452;28;20531;-67
2024/02/28 05:45:54;;;;;;;23.45;15.77;;;3.50;99.90;;;;;;5107173;28;20027;-67
2024/02/28 05:48:20;;;;;;;26.38;14.93;;;3.50;99.90;;;;;;5108632;28;20111;-68
2024/02/28 05:50:45;;;;;;;28.42;16.98;;;3.50;99.90;;;;;;5108493;28;20055;-63
2024/02/28 05:53:11;;;;;;;28.98;17.95;;;3.50;99.90;;;;;;5108539;28;20136;-71
2024/02/28 05:55:36;;;;;;;25.40;15.18;;;3.50;99.90;;;;;;5106651;28;20080;-72
2024/02/28 05:58:03;;;;;;;24.17;14.63;;;3.50;99.90;;;;;;5108341;28;20011;-71
2024/02/28 06:00:28;;;;;;;25.35;15.70;;;3.50;99.90;;;;;;5108246;28;20031;-71
2024/02/28 06:02:54;;;;;;;27.20;15.93;;;3.50;99.90;;;;;;5108135;28;20392;-62
2024/02/28 06:05:20;;;;;;;21.30;13.65;;;3.50;99.90;;;;;;5108074;28;20396;-70
2024/02/28 06:07:45;;;;;;;29.48;16.10;;;3.50;99.90;;;;;;5108055;28;20092;-70
2024/02/28 06:10:11;;;;;;;25.10;16.17;;;3.40;99.90;;;;;;5108295;28;20125;-69
2024/02/28 06:12:36;;;;;;;33.55;18.65;;;3.40;99.90;;;;;;5106891;28;20043;-69
2024/02/28 06:15:04;;;;;;;32.28;19.52;;;3.40;99.90;;;;;;5108625;28;20034;-69
2024/02/28 06:17:29;;;;;;;39.03;22.58;;;3.40;99.90;;;;;;5108217;28;20043;-68
2024/02/28 06:19:55;;;;;;;37.33;21.75;;;3.50;99.90;;;;;;5108609;28;20490;-68
2024/02/28 06:22:20;;;;;;;37.78;21.45;;;3.50;99.90;;;;;;5107949;28;20042;-69
2024/02/28 06:24:46;;;;;;;40.97;21.90;;;3.50;99.90;;;;;;5108085;28;20042;-68
2024/02/28 06:27:13;;;;;;;36.08;21.08;;;3.50;99.90;;;;;;5107875;28;20540;-69
2024/02/28 06:29:39;;;;;;;40.85;22.85;;;3.50;99.90;;;;;;5107996;28;20020;-68
2024/02/28 06:32:05;;;;;;;43.30;22.13;;;3.50;99.90;;;;;;5108132;28;20035;-69
2024/02/28 06:34:30;;;;;;;43.70;25.13;;;3.50;99.90;;;;;;5108177;28;20024;-68
2024/02/28 06:36:56;;;;;;;41.33;24.15;;;3.50;99.90;;;;;;5106700;28;20066;-68
2024/02/28 06:39:22;;;;;;;37.28;21.95;;;3.50;99.90;;;;;;5108276;28;20022;-68
2024/02/28 06:41:50;;;;;;;41.05;23.55;;;3.50;99.90;;;;;;5107850;28;20546;-68
2024/02/28 06:44:16;;;;;;;40.75;23.65;;;3.50;99.90;;;;;;5107912;28;20023;-68
2024/02/28 06:46:41;;;;;;;35.70;20.80;;;3.50;99.90;;;;;;5105982;28;20024;-68
2024/02/28 06:49:07;;;;;;;37.35;22.63;;;3.50;99.90;;;;;;5108207;28;20024;-68
2024/02/28 06:51:33;;;;;;;39.42;22.98;;;3.60;99.90;;;;;;5108160;28;20031;-68
2024/02/28 06:53:58;;;;;;;38.15;21.73;;;3.60;99.90;;;;;;5108241;28;20689;-68
2024/02/28 06:56:24;;;;;;;35.17;21.58;;;3.60;99.90;;;;;;5107456;28;20457;-68
2024/02/28 06:58:49;;;;;;;42.38;22.52;;;3.60;99.90;;;;;;5108131;28;20428;-69
2024/02/28 07:01:15;;;;;;;41.00;23.63;;;3.70;99.90;;;;;;5107747;28;20103;-68
2024/02/28 07:03:40;;;;;;;41.75;23.77;;;3.70;99.90;;;;;;5107983;28;20476;-68
2024/02/28 07:06:06;;;;;;;40.65;23.80;;;3.70;99.90;;;;;;5107838;28;20036;-68
2024/02/28 07:08:32;;;;;;;40.95;24.17;;;3.80;99.90;;;;;;5110153;28;20024;-68
2024/02/28 07:10:58;;;;;;;45.97;27.25;;;3.90;99.90;;;;;;5111604;27;20076;-68
2024/02/28 07:13:24;;;;;;;42.45;25.75;;;3.90;99.90;;;;;;5111294;28;20023;-69
2024/02/28 07:15:49;;;;;;;43.53;25.30;;;3.90;99.90;;;;;;5110826;28;20452;-68
2024/02/28 07:18:15;;;;;;;40.35;23.77;;;3.90;99.90;;;;;;5111650;28;20103;-68
2024/02/28 07:20:41;;;;;;;37.75;22.55;;;4.00;99.90;;;;;;5111616;28;20020;-68
2024/02/28 07:23:06;;;;;;;37.47;22.35;;;4.10;99.90;;;;;;5111293;28;20028;-69
2024/02/28 07:25:32;;;;;;;39.20;22.90;;;4.10;99.90;;;;;;5111339;28;20063;-69
2024/02/28 07:28:02;;;;;;;46.80;24.92;;;4.10;99.90;;;;;;5110260;28;20026;-69
2024/02/28 07:30:28;;;;;;;35.70;21.90;;;4.10;99.90;;;;;;5111572;28;20020;-68
2024/02/28 07:32:54;;;;;;;37.38;22.10;;;4.10;99.90;;;;;;5111102;28;20105;-68
2024/02/28 07:35:20;;;;;;;41.33;25.00;;;4.20;99.90;;;;;;5111434;28;20421;-69
2024/02/28 07:37:46;;;;;;;39.08;24.00;;;4.10;99.90;;;;;;5111123;28;20076;-68
2024/02/28 07:40:12;;;;;;;42.58;23.98;;;4.10;99.90;;;;;;5111265;28;20016;-68
2024/02/28 07:42:38;;;;;;;48.42;26.23;;;4.20;99.90;;;;;;5111403;28;20027;-68
2024/02/28 07:45:04;;;;;;;40.58;23.27;;;4.20;99.90;;;;;;5111355;28;20053;-68
2024/02/28 07:47:30;;;;;;;40.17;24.98;;;4.30;99.90;;;;;;5111075;28;20032;-68
2024/02/28 07:49:56;;;;;;;44.83;26.23;;;4.30;99.90;;;;;;5111247;28;20027;-68
2024/02/28 07:52:21;;;;;;;43.55;25.80;;;4.20;99.90;;;;;;5111475;27;20023;-68
2024/02/28 07:54:47;;;;;;;40.10;23.75;;;4.20;99.90;;;;;;5109928;28;20463;-68
2024/02/28 07:57:14;;;;;;;43.47;25.02;;;4.20;99.90;;;;;;5109283;28;20012;-68
2024/02/28 07:59:43;;;;;;;43.83;25.48;;;4.20;99.90;;;;;;5109710;28;20484;-68
2024/02/28 08:02:12;;;;;;;45.00;25.75;;;4.20;99.90;;;;;;5110991;28;20076;-68
2024/02/28 08:04:38;;;;;;;47.38;26.63;;;4.20;99.90;;;;;;5110891;28;20127;-68
2024/02/28 08:07:05;;;;;;;51.63;28.02;;;4.20;99.90;;;;;;5109477;28;20016;-68
2024/02/28 08:09:30;;;;;;;43.03;26.10;;;4.20;99.90;;;;;;5111130;28;20158;-68
2024/02/28 08:11:57;;;;;;;42.03;24.20;;;4.20;99.90;;;;;;5111018;28;20076;-68
2024/02/28 08:14:23;;;;;;;42.85;26.05;;;4.30;99.90;;;;;;5111086;27;20136;-68
2024/02/28 08:16:48;;;;;;;42.88;24.30;;;4.30;99.90;;;;;;5110329;28;20035;-68
2024/02/28 08:19:14;;;;;;;44.65;26.88;;;4.30;99.90;;;;;;5110878;28;20008;-68
2024/02/28 08:21:39;;;;;;;46.38;25.65;;;4.30;99.90;;;;;;5110907;28;20027;-68
2024/02/28 08:24:05;;;;;;;43.63;24.40;;;4.30;99.90;;;;;;5109489;28;20069;-68
2024/02/28 08:26:31;;;;;;;44.35;26.83;;;4.30;99.90;;;;;;5109022;28;20027;-69
2024/02/28 08:28:57;;;;;;;45.47;25.20;;;4.30;99.90;;;;;;5110450;28;20115;-68
2024/02/28 08:31:22;;;;;;;46.30;27.23;;;4.30;99.90;;;;;;5110282;28;20106;-68
2024/02/28 08:33:48;;;;;;;43.13;25.42;;;4.40;99.90;;;;;;5110636;28;20051;-69
2024/02/28 08:36:15;;;;;;;46.08;24.73;;;4.40;99.90;;;;;;5110738;27;20435;-68
2024/02/28 08:38:40;;;;;;;40.65;25.08;;;4.50;99.90;;;;;;5110847;28;20020;-68
2024/02/28 08:41:07;;;;;;;42.72;25.30;;;4.70;99.90;;;;;;5108989;28;20412;-67
2024/02/28 08:43:33;;;;;;;43.67;25.73;;;4.60;99.90;;;;;;5110559;28;20024;-68
2024/02/28 08:45:58;;;;;;;39.90;23.55;;;4.70;99.90;;;;;;5109657;28;20790;-67
2024/02/28 08:48:24;;;;;;;44.10;25.80;;;4.70;99.90;;;;;;5110411;28;20059;-67
2024/02/28 08:50:50;;;;;;;37.97;23.60;;;4.80;99.90;;;;;;5108654;28;20307;-68
2024/02/28 08:53:15;;;;;;;36.88;22.23;;;5.00;99.90;;;;;;5110182;28;20022;-68
2024/02/28 08:55:41;;;;;;;37.15;22.52;;;5.10;99.90;;;;;;5108093;28;20534;-67
2024/02/28 08:58:07;;;;;;;33.75;21.65;;;5.20;99.90;;;;;;5110169;28;20026;-67
2024/02/28 09:00:33;;;;;;;33.83;21.13;;;5.40;99.90;;;;;;5109911;28;20019;-67
2024/02/28 09:02:59;;;;;;;38.15;22.40;;;5.60;99.90;;;;;;5109631;28;20083;-67
2024/02/28 09:05:24;;;;;;;33.00;21.42;;;5.70;99.90;;;;;;5108195;28;20016;-67
2024/02/28 09:07:52;;;;;;;38.08;21.88;;;5.90;99.90;;;;;;5108260;28;20106;-68
2024/02/28 09:10:23;;;;;;;37.92;21.63;;;5.80;99.90;;;;;;5109756;28;20164;-68
2024/02/28 09:12:49;;;;;;;36.47;21.13;;;5.90;99.90;;;;;;5109246;28;20023;-67
2024/02/28 09:15:15;;;;;;;34.83;21.15;;;6.00;99.90;;;;;;5108097;28;20041;-68
2024/02/28 09:17:41;;;;;;;33.72;21.98;;;6.00;99.90;;;;;;5109222;28;20095;-68
2024/02/28 09:20:08;;;;;;;31.88;20.90;;;6.60;99.90;;;;;;5101647;28;20061;-68
2024/02/28 09:22:34;;;;;;;35.35;21.70;;;7.20;99.90;;;;;;5109706;28;20141;-68
2024/02/28 09:25:02;;;;;;;35.30;22.05;;;7.30;99.90;;;;;;5107885;28;20077;-68
2024/02/28 09:27:28;;;;;;;29.73;20.23;;;7.90;99.90;;;;;;5109382;28;20019;-68
2024/02/28 09:29:53;;;;;;;33.55;19.95;;;8.80;99.90;;;;;;5108855;28;20073;-68
2024/02/28 09:32:19;;;;;;;28.00;19.67;;;9.70;99.90;;;;;;5107531;28;20018;-68
2024/02/28 09:34:44;;;;;;;28.40;20.02;;;10.40;99.90;;;;;;5109063;28;20020;-68
2024/02/28 09:37:10;;;;;;;32.97;22.40;;;11.40;96.20;;;;;;5108734;28;20019;-68
2024/02/28 09:39:39;;;;;;;22.75;17.08;;;11.80;96.60;;;;;;5107753;28;20055;-68
2024/02/28 09:42:06;;;;;;;26.17;19.75;;;12.50;95.30;;;;;;5107174;28;20450;-68
2024/02/28 09:44:33;;;;;;;30.00;21.20;;;12.30;93.70;;;;;;5108832;28;20019;-69
2024/02/28 09:46:59;;;;;;;25.73;19.70;;;11.60;93.80;;;;;;5108223;27;20028;-68
2024/02/28 09:49:26;;;;;;;30.42;21.45;;;11.20;94.70;;;;;;5107850;28;20040;-68
2024/02/28 09:51:52;;;;;;;32.78;23.65;;;10.50;96.50;;;;;;5108479;28;20102;-68
2024/02/28 09:54:18;;;;;;;30.90;21.92;;;10.10;97.00;;;;;;5108784;28;20095;-68
2024/02/28 09:56:44;;;;;;;30.27;21.05;;;10.10;97.10;;;;;;5107948;28;20429;-68
2024/02/28 09:59:11;;;;;;;32.70;23.13;;;9.90;97.20;;;;;;5108463;28;20027;-68
2024/02/28 10:01:45;;;;;;;35.38;22.85;;;9.70;96.80;;;;;;5108433;28;20157;-68
2024/02/28 10:04:13;;;;;;;34.80;23.38;;;9.60;97.60;;;;;;5106397;28;20028;-68
2024/02/28 10:06:40;;;;;;;35.97;24.52;;;9.40;98.50;;;;;;5108022;28;20136;-68
2024/02/28 10:09:07;;;;;;;35.00;22.92;;;9.00;99.10;;;;;;5107638;28;20020;-68
2024/02/28 10:11:33;;;;;;;40.70;26.00;;;9.00;99.50;;;;;;5106533;28;20117;-68
2024/02/28 10:13:59;;;;;;;38.45;25.08;;;8.90;99.20;;;;;;5108258;28;20050;-69
2024/02/28 10:16:25;;;;;;;37.55;24.77;;;8.70;99.90;;;;;;5107842;28;20058;-69
2024/02/28 10:18:50;;;;;;;38.08;24.40;;;8.50;99.90;;;;;;5108449;28;20117;-68
2024/02/28 10:21:16;;;;;;;42.83;24.48;;;8.60;99.90;;;;;;5107887;28;20106;-67
2024/02/28 10:23:42;;;;;;;35.85;22.42;;;8.80;99.70;;;;;;5108348;28;20024;-67
2024/02/28 10:26:11;;;;;;;35.33;23.52;;;9.90;99.90;;;;;;5107901;28;20023;-68
2024/02/28 10:28:39;;;;;;;34.13;22.00;;;10.00;99.30;;;;;;5108079;28;20034;-69
2024/02/28 10:31:05;;;;;;;38.55;23.58;;;10.30;98.50;;;;;;5106980;28;20019;-68
2024/02/28 10:33:33;;;;;;;39.58;24.88;;;10.00;98.90;;;;;;5106932;28;20020;-69
2024/02/28 10:35:59;;;;;;;34.08;22.83;;;10.40;98.50;;;;;;5107486;28;20407;-69
2024/02/28 10:38:26;;;;;;;31.75;20.95;;;11.00;97.30;;;;;;5106466;28;20111;-68
2024/02/28 10:40:53;;;;;;;31.13;20.45;;;11.20;96.30;;;;;;5107945;28;20024;-69
2024/02/28 10:43:19;;;;;;;30.35;20.90;;;12.30;95.70;;;;;;5109674;27;20404;-69
2024/02/28 10:45:46;;;;;;;29.83;21.67;;;13.10;93.20;;;;;;5110283;28;20028;-69
2024/02/28 10:48:14;;;;;;;34.20;23.10;;;13.00;92.40;;;;;;5111405;28;20024;-69
2024/02/28 10:50:40;;;;;;;30.90;21.92;;;13.60;91.90;;;;;;5111942;28;20043;-67
2024/02/28 10:53:14;;;;;;;26.20;19.35;;;13.60;90.50;;;;;;5112162;28;20027;-66
2024/02/28 10:55:40;;;;;;;27.58;20.40;;;13.70;90.80;;;;;;5111939;28;20420;-66
2024/02/28 10:58:10;;;;;;;26.13;20.38;;;14.50;89.90;;;;;;5111886;28;20020;-68
2024/02/28 11:00:38;;;;;;;24.40;18.95;;;14.90;86.40;;;;;;5112174;28;20023;-67
2024/02/28 11:03:05;;;;;;;22.15;16.45;;;15.50;86.20;;;;;;5110561;28;20031;-68
2024/02/28 11:05:42;;;;;;;29.88;23.08;;;16.20;84.40;;;;;;5111707;28;20034;-68
2024/02/28 11:08:11;;;;;;;27.63;20.05;;;15.90;83.50;;;;;;5110971;28;20210;-67
2024/02/28 11:10:43;;;;;;;27.55;21.52;;;16.50;83.10;;;;;;5112636;27;20055;-68
2024/02/28 11:13:20;;;;;;;22.73;17.65;;;16.80;80.90;;;;;;5112157;28;20032;-68
2024/02/28 11:15:46;;;;;;;22.08;18.58;;;17.60;77.60;;;;;;5111826;28;20038;-67
2024/02/28 11:18:12;;;;;;;23.63;19.48;;;17.70;77.50;;;;;;5111852;28;20028;-67
2024/02/28 11:20:38;;;;;;;27.55;22.45;;;17.10;79.20;;;;;;5110683;28;20032;-68
2024/02/28 11:23:06;;;;;;;22.88;18.15;;;17.70;77.00;;;;;;5111524;28;20106;-68
2024/02/28 11:25:32;;;;;;;20.73;16.95;;;18.10;74.90;;;;;;5111590;28;20153;-68
2024/02/28 11:27:57;;;;;;;21.92;17.63;;;17.70;76.50;;;;;;5112032;28;20108;-68
2024/02/28 11:30:25;;;;;;;23.17;20.35;;;18.00;77.10;;;;;;5110783;28;20045;-69
2024/02/28 11:32:53;;;;;;;21.33;18.13;;;18.40;74.40;;;;;;5111600;28;20055;-68
2024/02/28 11:35:18;;;;;;;23.60;20.02;;;17.90;74.60;;;;;;5101746;28;20016;-69
2024/02/28 11:37:47;;;;;;;25.02;20.48;;;17.10;75.30;;;;;;5111640;28;20392;-69
2024/02/28 11:40:13;;;;;;;24.35;20.40;;;17.00;76.60;;;;;;5111855;28;20024;-69
2024/02/28 11:42:39;;;;;;;31.17;23.17;;;16.40;78.00;;;;;;5110946;28;20042;-69
2024/02/28 11:45:05;;;;;;;27.42;21.38;;;16.30;76.90;;;;;;5110455;28;20030;-68
2024/02/28 11:47:32;;;;;;;26.00;19.77;;;15.60;78.30;;;;;;5110765;28;20031;-68
2024/02/28 11:50:02;;;;;;;27.45;21.02;;;15.60;79.50;;;;;;5111280;28;20023;-68
2024/02/28 11:52:30;;;;;;;32.08;23.58;;;15.90;78.70;;;;;;5110750;28;20276;-68
2024/02/28 11:54:56;;;;;;;28.85;21.00;;;16.00;77.60;;;;;;5110471;27;20030;-69
2024/02/28 11:57:22;;;;;;;30.05;22.73;;;16.00;79.00;;;;;;5109601;28;20102;-69
2024/02/28 11:59:48;;;;;;;30.98;23.27;;;15.10;80.70;;;;;;5110812;28;20033;-68
2024/02/28 12:02:15;;;;;;;28.83;21.92;;;14.80;81.60;;;;;;5110576;28;20545;-68
2024/02/28 12:04:42;;;;;;;31.02;22.55;;;14.30;82.60;;;;;;5111085;28;20089;-68
2024/02/28 12:07:08;;;;;;;32.47;23.48;;;13.40;85.00;;;;;;5109323;28;20081;-68
2024/02/28 12:09:34;;;;;;;33.95;24.58;;;13.10;86.80;;;;;;5111347;28;20048;-68
2024/02/28 12:12:03;;;;;;;34.60;25.05;;;12.70;87.70;;;;;;5110790;28;20028;-68
2024/02/28 12:14:32;;;;;;;33.95;22.77;;;12.30;88.70;;;;;;5111053;28;20226;-68
2024/02/28 12:16:58;;;;;;;38.55;25.92;;;13.10;89.10;;;;;;5110051;27;20015;-68
2024/02/28 12:19:24;;;;;;;36.38;25.02;;;14.10;86.20;;;;;;5109171;28;20023;-68
2024/02/28 12:21:50;;;;;;;31.13;22.83;;;15.10;84.10;;;;;;5110522;28;20027;-68
2024/02/28 12:24:15;;;;;;;31.80;23.00;;;15.40;82.20;;;;;;5110593;28;20073;-68
2024/02/28 12:26:41;;;;;;;30.88;23.92;;;15.40;83.10;;;;;;5110142;28;20028;-68
2024/02/28 12:29:09;;;;;;;33.05;24.25;;;15.00;83.30;;;;;;5110704;28;20030;-68
2024/02/28 12:31:34;;;;;;;35.63;26.30;;;15.20;82.90;;;;;;5110368;28;20023;-68